createdAt,value
2017-07-19T00:00:42.963Z,0
2017-07-19T00:01:44.634Z,0
2017-07-19T00:02:46.295Z,0
2017-07-19T00:03:47.960Z,0
2017-07-19T00:04:49.637Z,0
2017-07-19T00:05:51.297Z,0
2017-07-19T00:06:52.951Z,0
2017-07-19T00:07:54.612Z,0
2017-07-19T00:08:56.272Z,0
2017-07-19T00:09:57.945Z,0
2017-07-19T00:10:59.601Z,0
2017-07-19T00:12:01.288Z,0
2017-07-19T00:13:02.936Z,0
2017-07-19T00:14:04.601Z,0
2017-07-19T00:15:06.260Z,0
2017-07-19T00:16:07.926Z,0
2017-07-19T00:17:09.583Z,0
2017-07-19T00:18:11.242Z,0
2017-07-19T00:19:12.902Z,0
2017-07-19T00:20:14.567Z,0
2017-07-19T00:21:16.315Z,0
2017-07-19T00:22:17.923Z,0
2017-07-19T00:23:19.579Z,0
2017-07-19T00:24:21.242Z,0
2017-07-19T00:25:22.907Z,0
2017-07-19T00:26:24.569Z,0
2017-07-19T00:27:26.252Z,0
2017-07-19T00:28:27.913Z,0
2017-07-19T00:29:29.599Z,0
2017-07-19T00:30:31.262Z,0
2017-07-19T00:31:32.924Z,0
2017-07-19T00:32:34.587Z,0
2017-07-19T00:33:36.263Z,0
2017-07-19T00:34:37.917Z,0
2017-07-19T00:35:39.584Z,0
2017-07-19T00:36:41.242Z,0
2017-07-19T00:37:42.911Z,0
2017-07-19T00:38:44.573Z,0
2017-07-19T00:39:46.242Z,0
2017-07-19T00:40:47.903Z,0
2017-07-19T00:41:49.563Z,0
2017-07-19T00:42:51.228Z,0
2017-07-19T00:43:52.884Z,0
2017-07-19T00:44:54.541Z,0
2017-07-19T00:45:56.210Z,0
2017-07-19T00:46:57.893Z,0
2017-07-19T00:47:59.554Z,0
2017-07-19T00:49:01.224Z,0
2017-07-19T00:50:02.908Z,0
2017-07-19T00:51:04.569Z,0
2017-07-19T00:52:06.256Z,0
2017-07-19T00:53:07.928Z,0
2017-07-19T00:54:09.588Z,0
2017-07-19T00:55:11.252Z,0
2017-07-19T00:56:12.910Z,0
2017-07-19T00:57:14.569Z,0
2017-07-19T00:58:16.230Z,0
2017-07-19T00:59:17.896Z,0
2017-07-19T01:00:19.559Z,0
2017-07-19T01:01:21.224Z,0
2017-07-19T01:02:22.884Z,0
2017-07-19T01:03:24.547Z,0
2017-07-19T01:04:26.213Z,0
2017-07-19T01:05:27.871Z,0
2017-07-19T01:06:29.579Z,0
2017-07-19T01:07:31.261Z,0
2017-07-19T01:08:32.919Z,0
2017-07-19T01:09:34.589Z,0
2017-07-19T01:10:36.255Z,0
2017-07-19T01:11:37.942Z,0
2017-07-19T01:12:39.601Z,0
2017-07-19T01:13:41.263Z,0
2017-07-19T01:14:42.922Z,0
2017-07-19T01:15:44.585Z,0
2017-07-19T01:16:46.275Z,0
2017-07-19T01:17:47.937Z,0
2017-07-19T01:18:49.603Z,0
2017-07-19T01:19:51.265Z,0
2017-07-19T01:20:52.923Z,0
2017-07-19T01:21:54.594Z,0
2017-07-19T01:22:56.253Z,0
2017-07-19T01:23:57.919Z,0
2017-07-19T01:24:59.580Z,0
2017-07-19T01:26:01.250Z,0
2017-07-19T01:27:02.906Z,0
2017-07-19T01:28:04.571Z,0
2017-07-19T01:29:06.239Z,0
2017-07-19T01:30:07.901Z,0
2017-07-19T01:31:09.559Z,0
2017-07-19T01:32:11.225Z,0
2017-07-19T01:33:12.890Z,0
2017-07-19T01:34:14.639Z,0
2017-07-19T01:35:16.312Z,0
2017-07-19T01:36:17.975Z,0
2017-07-19T01:37:19.635Z,0
2017-07-19T01:38:21.302Z,0
2017-07-19T01:39:22.971Z,0
2017-07-19T01:40:24.642Z,0
2017-07-19T01:41:26.311Z,0
2017-07-19T01:42:27.980Z,0
2017-07-19T01:43:29.655Z,0
2017-07-19T01:44:31.313Z,0
2017-07-19T01:45:32.978Z,0
2017-07-19T01:46:34.644Z,0
2017-07-19T01:47:36.306Z,0
2017-07-19T01:48:37.967Z,0
2017-07-19T01:49:39.690Z,0
2017-07-19T01:50:41.364Z,0
2017-07-19T01:51:43.026Z,0
2017-07-19T01:52:44.695Z,0
2017-07-19T01:53:46.362Z,0
2017-07-19T01:54:48.033Z,0
2017-07-19T01:55:49.694Z,0
2017-07-19T01:56:51.351Z,0
2017-07-19T01:57:53.015Z,0
2017-07-19T01:58:54.681Z,0
2017-07-19T01:59:56.340Z,0
2017-07-19T02:00:58.022Z,0
2017-07-19T02:01:59.680Z,0
2017-07-19T02:03:01.338Z,0
2017-07-19T02:04:03.003Z,0
2017-07-19T02:05:04.709Z,0
2017-07-19T02:06:06.380Z,0
2017-07-19T02:07:08.041Z,0
2017-07-19T02:08:09.708Z,0
2017-07-19T02:09:11.407Z,0
2017-07-19T02:10:13.071Z,0
2017-07-19T02:11:14.730Z,0
2017-07-19T02:12:16.393Z,0
2017-07-19T02:13:18.051Z,0
2017-07-19T02:14:19.713Z,0
2017-07-19T02:15:21.380Z,0
2017-07-19T02:16:23.040Z,0
2017-07-19T02:17:24.700Z,0
2017-07-19T02:18:26.375Z,0
2017-07-19T02:19:28.042Z,0
2017-07-19T02:20:29.733Z,0
2017-07-19T02:21:31.399Z,0
2017-07-19T02:22:33.063Z,0
2017-07-19T02:23:34.726Z,0
2017-07-19T02:24:36.388Z,0
2017-07-19T02:25:38.048Z,0
2017-07-19T02:26:39.718Z,0
2017-07-19T02:27:41.370Z,0
2017-07-19T02:28:43.031Z,0
2017-07-19T02:29:44.690Z,0
2017-07-19T02:30:46.356Z,0
2017-07-19T02:31:48.017Z,0
2017-07-19T02:32:49.682Z,0
2017-07-19T02:33:51.347Z,0
2017-07-19T02:34:53.013Z,0
2017-07-19T02:35:54.673Z,0
2017-07-19T02:36:56.333Z,0
2017-07-19T02:37:58.011Z,0
2017-07-19T02:38:59.680Z,0
2017-07-19T02:40:01.339Z,0
2017-07-19T02:41:03.051Z,0
2017-07-19T02:42:04.717Z,0
2017-07-19T02:43:06.386Z,0
2017-07-19T02:44:08.049Z,0
2017-07-19T02:45:09.740Z,0
2017-07-19T02:46:11.417Z,0
2017-07-19T02:47:13.084Z,0
2017-07-19T02:48:14.770Z,0
2017-07-19T02:49:16.434Z,0
2017-07-19T02:50:18.093Z,0
2017-07-19T02:51:19.753Z,4
2017-07-19T02:52:21.421Z,4
2017-07-19T02:53:23.083Z,4
2017-07-19T02:54:24.742Z,0
2017-07-19T02:55:26.405Z,4
2017-07-19T02:56:28.059Z,4
2017-07-19T02:57:29.764Z,4
2017-07-19T02:58:31.426Z,4
2017-07-19T02:59:33.084Z,8
2017-07-19T03:00:34.759Z,8
2017-07-19T03:01:36.403Z,8
2017-07-19T03:02:38.063Z,12
2017-07-19T03:03:39.727Z,12
2017-07-19T03:04:41.387Z,16
2017-07-19T03:05:43.067Z,16
2017-07-19T03:06:44.729Z,16
2017-07-19T03:07:46.400Z,24
2017-07-19T03:08:48.063Z,24
2017-07-19T03:09:49.760Z,28
2017-07-19T03:10:51.425Z,36
2017-07-19T03:11:53.089Z,36
2017-07-19T03:12:54.765Z,40
2017-07-19T03:13:56.430Z,48
2017-07-19T03:14:58.100Z,56
2017-07-19T03:15:59.754Z,64
2017-07-19T03:17:01.425Z,72
2017-07-19T03:18:03.093Z,80
2017-07-19T03:19:04.805Z,96
2017-07-19T03:20:06.518Z,104
2017-07-19T03:21:08.145Z,116
2017-07-19T03:22:09.806Z,132
2017-07-19T03:23:11.475Z,144
2017-07-19T03:24:13.134Z,160
2017-07-19T03:25:14.806Z,180
2017-07-19T03:26:16.476Z,200
2017-07-19T03:27:18.131Z,220
2017-07-19T03:28:19.794Z,240
2017-07-19T03:29:21.457Z,264
2017-07-19T03:30:23.129Z,288
2017-07-19T03:31:24.794Z,312
2017-07-19T03:32:26.458Z,340
2017-07-19T03:33:28.124Z,368
2017-07-19T03:34:29.816Z,400
2017-07-19T03:35:31.489Z,428
2017-07-19T03:36:33.144Z,460
2017-07-19T03:37:34.812Z,500
2017-07-19T03:38:36.474Z,536
2017-07-19T03:39:38.145Z,580
2017-07-19T03:40:39.809Z,624
2017-07-19T03:41:41.483Z,668
2017-07-19T03:42:43.148Z,712
2017-07-19T03:43:44.806Z,756
2017-07-19T03:44:46.479Z,804
2017-07-19T03:45:48.133Z,852
2017-07-19T03:46:49.795Z,900
2017-07-19T03:47:51.464Z,956
2017-07-19T03:48:53.131Z,1004
2017-07-19T03:49:54.810Z,1064
2017-07-19T03:50:56.473Z,1116
2017-07-19T03:51:58.132Z,1176
2017-07-19T03:52:59.801Z,1240
2017-07-19T03:54:01.468Z,1304
2017-07-19T03:55:03.135Z,1364
2017-07-19T03:56:04.807Z,1416
2017-07-19T03:57:06.487Z,1452
2017-07-19T03:58:08.153Z,1500
2017-07-19T03:59:09.814Z,1568
2017-07-19T04:00:11.482Z,1652
2017-07-19T04:01:13.141Z,1748
2017-07-19T04:02:14.815Z,1836
2017-07-19T04:03:16.495Z,1916
2017-07-19T04:04:18.151Z,1988
2017-07-19T04:05:19.820Z,2064
2017-07-19T04:06:21.491Z,2128
2017-07-19T04:07:23.159Z,2204
2017-07-19T04:08:24.823Z,2280
2017-07-19T04:09:26.500Z,2356
2017-07-19T04:10:28.167Z,2436
2017-07-19T04:11:29.864Z,2520
2017-07-19T04:12:31.525Z,2604
2017-07-19T04:13:33.192Z,2684
2017-07-19T04:14:34.853Z,2768
2017-07-19T04:15:36.523Z,2844
2017-07-19T04:16:38.187Z,2916
2017-07-19T04:17:39.858Z,2988
2017-07-19T04:18:41.525Z,3060
2017-07-19T04:19:43.198Z,3132
2017-07-19T04:20:44.865Z,3204
2017-07-19T04:21:46.528Z,3276
2017-07-19T04:22:48.196Z,3352
2017-07-19T04:23:49.858Z,3428
2017-07-19T04:24:51.576Z,3500
2017-07-19T04:25:53.245Z,3572
2017-07-19T04:26:54.909Z,3644
2017-07-19T04:27:56.569Z,3716
2017-07-19T04:29:00.174Z,3792
2017-07-19T04:30:01.843Z,3876
2017-07-19T04:31:03.518Z,3964
2017-07-19T04:32:05.180Z,4052
2017-07-19T04:33:06.849Z,4144
2017-07-19T04:34:08.515Z,4244
2017-07-19T04:35:10.175Z,4340
2017-07-19T04:36:11.838Z,4444
2017-07-19T04:37:13.505Z,4544
2017-07-19T04:38:15.192Z,4628
2017-07-19T04:39:16.854Z,4716
2017-07-19T04:40:18.527Z,4812
2017-07-19T04:41:20.194Z,4900
2017-07-19T04:42:21.912Z,5000
2017-07-19T04:43:24.243Z,5108
2017-07-19T04:44:25.908Z,5228
2017-07-19T04:45:27.575Z,5348
2017-07-19T04:46:29.257Z,5836
2017-07-19T04:47:30.923Z,6772
2017-07-19T04:48:32.599Z,7612
2017-07-19T04:49:34.262Z,8284
2017-07-19T04:50:35.929Z,8652
2017-07-19T04:51:37.615Z,8916
2017-07-19T04:52:39.288Z,9196
2017-07-19T04:53:40.954Z,9412
2017-07-19T04:54:42.630Z,9556
2017-07-19T04:55:44.297Z,9548
2017-07-19T15:13:06.171Z,4732
2017-07-19T15:14:07.891Z,4424
2017-07-19T15:15:09.693Z,4160
2017-07-19T15:16:11.780Z,3928
2017-07-19T15:17:14.155Z,3724
2017-07-19T15:18:16.541Z,3532
2017-07-19T15:19:18.721Z,3356
2017-07-19T15:20:20.815Z,3200
2017-07-19T15:21:23.561Z,3048
2017-07-19T15:22:25.302Z,2908
2017-07-19T15:23:26.999Z,2788
2017-07-19T15:24:28.899Z,2684
2017-07-19T15:25:30.643Z,2596
2017-07-19T15:26:32.388Z,2520
2017-07-19T15:27:34.116Z,2460
2017-07-19T15:28:35.832Z,2400
2017-07-19T15:29:37.540Z,2344
2017-07-19T15:30:39.244Z,2276
2017-07-19T15:31:40.959Z,2184
2017-07-19T15:32:42.644Z,2032
2017-07-19T15:33:45.545Z,1844
2017-07-19T15:34:47.238Z,1660
2017-07-19T15:35:48.971Z,1504
2017-07-19T15:36:51.985Z,1392
2017-07-19T15:37:53.800Z,1320
2017-07-19T15:38:55.677Z,1264
2017-07-19T15:39:57.428Z,1176
2017-07-19T15:40:59.186Z,1064
2017-07-19T15:42:00.927Z,900
2017-07-19T15:43:02.658Z,668
2017-07-19T15:44:04.414Z,500
2017-07-19T15:45:06.132Z,388
2017-07-19T15:46:07.889Z,308
2017-07-19T15:47:09.620Z,228
2017-07-19T15:48:11.371Z,180
2017-07-19T15:49:13.146Z,160
2017-07-19T15:50:14.930Z,152
2017-07-19T15:51:16.660Z,152
2017-07-19T15:52:18.709Z,144
2017-07-19T15:53:20.356Z,140
2017-07-19T15:54:22.119Z,124
2017-07-19T15:55:23.883Z,100
2017-07-19T15:56:25.620Z,80
2017-07-19T15:57:27.352Z,64
2017-07-19T15:58:29.093Z,56
2017-07-19T15:59:30.800Z,56
2017-07-19T16:00:32.474Z,60
2017-07-19T16:01:34.198Z,68
2017-07-19T16:02:35.974Z,84
2017-07-19T16:03:37.696Z,116
2017-07-19T16:04:39.479Z,132
2017-07-19T16:05:41.231Z,132
2017-07-19T16:06:42.927Z,124
2017-07-19T16:07:44.721Z,136
2017-07-19T16:08:46.428Z,168
2017-07-19T16:09:48.185Z,184
2017-07-19T16:10:50.711Z,200
2017-07-19T16:11:52.453Z,212
2017-07-19T16:12:55.062Z,224
2017-07-19T16:13:56.831Z,224
2017-07-19T16:14:58.556Z,228
2017-07-19T16:16:00.270Z,236
2017-07-19T16:17:02.101Z,236
2017-07-19T16:18:03.785Z,240
2017-07-19T16:19:05.467Z,236
2017-07-19T16:20:07.150Z,236
2017-07-19T16:21:08.823Z,236
2017-07-19T16:22:10.504Z,248
2017-07-19T16:23:12.175Z,268
2017-07-19T16:24:13.864Z,272
2017-07-19T16:25:15.514Z,284
2017-07-19T16:26:17.182Z,292
2017-07-19T16:27:18.889Z,284
2017-07-19T16:28:20.553Z,252
2017-07-19T16:29:22.247Z,212
2017-07-19T16:30:23.983Z,168
2017-07-19T16:31:25.674Z,156
2017-07-19T16:32:27.344Z,184
2017-07-19T16:33:29.011Z,208
2017-07-19T16:34:30.670Z,212
2017-07-19T16:35:32.337Z,196
2017-07-19T16:36:34.157Z,220
2017-07-19T16:37:35.836Z,280
2017-07-19T16:38:37.508Z,316
2017-07-19T16:39:39.278Z,352
2017-07-19T16:40:41.171Z,396
2017-07-19T16:41:42.849Z,416
2017-07-19T16:42:44.523Z,420
2017-07-19T16:43:46.184Z,412
2017-07-19T16:44:47.860Z,404
2017-07-19T16:45:49.536Z,404
2017-07-19T16:46:51.214Z,400
2017-07-19T16:47:52.879Z,388
2017-07-19T16:48:54.547Z,368
2017-07-19T16:49:56.210Z,376
2017-07-19T16:50:57.906Z,396
2017-07-19T16:51:59.577Z,400
2017-07-19T16:53:01.248Z,400
2017-07-19T16:54:02.937Z,404
2017-07-19T16:55:04.603Z,400
2017-07-19T16:56:06.269Z,404
2017-07-19T16:57:07.962Z,408
2017-07-19T16:58:09.610Z,412
2017-07-19T16:59:11.283Z,416
2017-07-19T17:00:12.957Z,424
2017-07-19T17:01:14.647Z,428
2017-07-19T17:02:16.310Z,432
2017-07-19T17:03:17.983Z,436
2017-07-19T17:04:19.645Z,436
2017-07-19T17:05:21.307Z,436
2017-07-19T17:06:22.977Z,440
2017-07-19T17:07:24.659Z,444
2017-07-19T17:08:26.332Z,444
2017-07-19T17:09:28.001Z,452
2017-07-19T17:10:29.694Z,452
2017-07-19T17:11:31.393Z,464
2017-07-19T17:12:33.058Z,476
2017-07-19T17:13:34.724Z,492
2017-07-19T17:14:36.396Z,508
2017-07-19T17:15:38.115Z,520
2017-07-19T17:16:39.773Z,528
2017-07-19T17:17:41.439Z,540
2017-07-19T17:18:43.117Z,548
2017-07-19T17:19:44.782Z,552
2017-07-19T17:20:46.463Z,568
2017-07-19T17:21:48.133Z,584
2017-07-19T17:22:49.817Z,600
2017-07-19T17:23:51.488Z,616
2017-07-19T17:24:53.160Z,632
2017-07-19T17:25:54.831Z,652
2017-07-19T17:26:56.498Z,680
2017-07-19T17:27:58.193Z,704
2017-07-19T17:28:59.860Z,724
2017-07-19T17:30:01.524Z,748
2017-07-19T17:31:03.192Z,768
2017-07-19T17:32:04.861Z,788
2017-07-19T17:33:06.541Z,808
2017-07-19T17:34:08.213Z,828
2017-07-19T17:35:09.881Z,848
2017-07-19T17:36:11.586Z,868
2017-07-19T17:37:13.270Z,884
2017-07-19T17:38:14.924Z,896
2017-07-19T17:39:16.594Z,912
2017-07-19T17:40:18.285Z,924
2017-07-19T17:41:19.956Z,936
2017-07-19T17:42:21.685Z,952
2017-07-19T17:43:23.359Z,968
2017-07-19T17:44:25.021Z,984
2017-07-19T17:45:26.687Z,1004
2017-07-19T17:46:28.358Z,1024
2017-07-19T17:47:30.047Z,1044
2017-07-19T17:48:31.720Z,1064
2017-07-19T17:49:33.413Z,1088
2017-07-19T17:50:35.082Z,1104
2017-07-19T17:51:36.754Z,1124
2017-07-19T17:52:38.432Z,1144
2017-07-19T17:53:40.098Z,1164
2017-07-19T17:54:41.772Z,1180
2017-07-19T17:55:43.488Z,1196
2017-07-19T17:56:45.170Z,1212
2017-07-19T17:57:46.838Z,1224
2017-07-19T17:58:48.514Z,1228
2017-07-19T17:59:50.185Z,1240
2017-07-19T18:00:51.842Z,1244
2017-07-19T18:01:53.530Z,1260
2017-07-19T18:02:55.206Z,1280
2017-07-19T18:03:56.866Z,1320
2017-07-19T18:04:58.563Z,1372
2017-07-19T18:06:00.239Z,1416
2017-07-19T18:07:01.915Z,1460
2017-07-19T18:08:03.594Z,1512
2017-07-19T18:09:05.292Z,1560
2017-07-19T18:10:06.966Z,1604
2017-07-19T18:11:08.634Z,1644
2017-07-19T18:12:10.321Z,1684
2017-07-19T18:13:11.997Z,1728
2017-07-19T18:14:13.669Z,1768
2017-07-19T18:15:15.344Z,1812
2017-07-19T18:16:17.016Z,1856
2017-07-19T18:17:18.682Z,1896
2017-07-19T18:18:20.347Z,1940
2017-07-19T18:19:22.026Z,1980
2017-07-19T18:20:23.759Z,2012
2017-07-19T18:21:25.437Z,2040
2017-07-19T18:22:27.125Z,2088
2017-07-19T18:23:28.787Z,2140
2017-07-19T18:24:30.466Z,2192
2017-07-19T18:25:32.141Z,2216
2017-07-19T18:26:33.823Z,2236
2017-07-19T18:27:35.487Z,2224
2017-07-19T18:28:37.153Z,2168
2017-07-19T18:54:14.476Z,1688
2017-07-19T18:57:55.595Z,1516
2017-07-19T18:58:57.255Z,1476
2017-07-19T19:22:14.652Z,480
2017-07-19T19:23:21.980Z,452
2017-07-19T19:24:23.551Z,428
2017-07-19T19:25:25.236Z,400
2017-07-19T19:27:50.225Z,344
2017-07-19T19:28:51.910Z,324
2017-07-19T19:29:53.644Z,304
2017-07-19T19:30:55.499Z,288
2017-07-19T19:31:57.245Z,268
2017-07-19T19:32:59.065Z,244
2017-07-19T19:34:01.808Z,224
2017-07-19T19:35:03.500Z,204
2017-07-19T19:36:05.243Z,188
2017-07-19T19:37:09.030Z,164
2017-07-19T19:38:11.156Z,144
2017-07-19T19:39:12.855Z,128
2017-07-19T19:40:14.648Z,112
2017-07-19T19:41:22.668Z,92
2017-07-19T19:42:24.379Z,80
2017-07-19T19:43:26.199Z,72
2017-07-19T19:44:28.062Z,64
2017-07-19T19:45:30.111Z,60
2017-07-19T19:46:31.862Z,52
2017-07-19T19:47:33.950Z,48
2017-07-19T19:48:43.473Z,44
2017-07-19T20:07:41.900Z,0
2017-07-19T20:08:43.559Z,4
2017-07-19T20:09:45.271Z,4
2017-07-19T20:10:46.949Z,4
2017-07-19T20:11:48.629Z,0
2017-07-19T20:12:50.304Z,0
2017-07-19T20:13:51.972Z,0
2017-07-19T20:14:53.681Z,0
2017-07-19T20:15:55.339Z,0
2017-07-19T20:16:57.009Z,0
2017-07-19T20:17:58.680Z,0
2017-07-19T20:19:00.353Z,0
2017-07-19T20:20:02.007Z,0
2017-07-19T20:21:03.672Z,0
2017-07-19T20:22:05.340Z,0
2017-07-19T20:23:07.010Z,0
2017-07-19T20:24:08.694Z,0
2017-07-19T20:25:10.373Z,0
2017-07-19T20:26:12.047Z,0
2017-07-19T20:27:13.725Z,0
2017-07-19T20:28:15.419Z,0
2017-07-19T20:29:17.094Z,0
2017-07-19T20:30:18.756Z,0
2017-07-19T20:31:20.454Z,0
2017-07-19T20:32:22.113Z,0
2017-07-19T20:33:23.799Z,0
2017-07-19T20:34:25.538Z,0
2017-07-19T20:35:27.189Z,0
2017-07-19T20:36:28.845Z,0
2017-07-19T20:37:30.544Z,0
2017-07-19T20:38:32.220Z,0
2017-07-19T20:39:33.885Z,0
2017-07-19T20:40:35.565Z,0
2017-07-19T20:41:37.277Z,0
2017-07-19T20:42:38.950Z,0
2017-07-19T20:43:40.629Z,0
2017-07-19T20:44:42.293Z,0
2017-07-19T20:45:43.958Z,0
2017-07-19T20:46:45.628Z,0
2017-07-19T20:47:47.510Z,0
2017-07-19T20:48:54.150Z,0
2017-07-19T20:50:03.269Z,0
2017-07-19T20:51:10.023Z,0
2017-07-19T20:52:13.110Z,0
2017-07-19T20:53:15.368Z,0
2017-07-19T20:54:23.032Z,0
2017-07-19T20:55:27.397Z,0
2017-07-19T20:56:29.954Z,0
2017-07-19T20:57:35.158Z,0
2017-07-19T20:58:36.883Z,0
2017-07-19T20:59:38.621Z,0
2017-07-19T21:00:40.370Z,0
2017-07-19T21:01:42.084Z,0
2017-07-19T21:02:43.776Z,0
2017-07-19T21:03:48.340Z,0
2017-07-19T21:04:50.124Z,0
2017-07-19T21:05:51.665Z,0
2017-07-19T21:06:53.344Z,0
2017-07-19T21:07:55.026Z,0
2017-07-19T21:08:56.816Z,0
2017-07-19T21:09:58.471Z,0
2017-07-19T21:11:00.142Z,0
2017-07-19T21:12:03.904Z,0
2017-07-19T21:13:05.666Z,0
2017-07-19T21:14:08.269Z,0
2017-07-19T21:15:10.011Z,0
2017-07-19T21:16:11.736Z,0
2017-07-19T21:17:13.681Z,0
2017-07-19T21:18:15.532Z,0
2017-07-19T21:19:17.327Z,0
2017-07-19T21:20:19.057Z,0
2017-07-19T21:21:20.819Z,0
2017-07-19T21:22:22.547Z,0
2017-07-19T21:23:24.269Z,0
2017-07-19T21:24:26.025Z,0
2017-07-19T21:25:27.723Z,0
2017-07-19T21:26:29.464Z,0
2017-07-19T21:27:31.097Z,0
2017-07-19T21:28:32.805Z,0
2017-07-19T21:29:34.495Z,0
2017-07-19T21:30:39.251Z,0
2017-07-19T21:31:40.903Z,0
2017-07-19T21:32:42.658Z,0
2017-07-19T21:33:44.384Z,0
2017-07-19T21:34:46.144Z,0
2017-07-19T21:35:47.881Z,0
2017-07-19T21:36:49.555Z,0
2017-07-19T21:37:51.365Z,0
2017-07-19T21:38:53.260Z,0
2017-07-19T21:39:54.921Z,0
2017-07-19T21:40:56.709Z,0
2017-07-19T21:41:58.466Z,0
2017-07-19T21:43:00.255Z,0
2017-07-19T21:44:01.978Z,0
2017-07-19T21:45:03.733Z,0
2017-07-19T21:46:05.400Z,0
2017-07-19T21:47:07.295Z,0
2017-07-19T21:48:09.170Z,0
2017-07-19T21:49:10.869Z,0
2017-07-19T21:50:12.648Z,0
2017-07-19T21:51:14.458Z,0
2017-07-19T21:52:16.123Z,0
2017-07-19T21:53:17.795Z,0
2017-07-19T21:54:19.579Z,0
2017-07-19T21:55:21.252Z,0
2017-07-19T21:56:22.912Z,0
2017-07-19T21:57:24.584Z,0
2017-07-19T21:58:26.250Z,0
2017-07-19T21:59:27.920Z,0
2017-07-19T22:00:29.606Z,0
2017-07-19T22:01:31.277Z,0
2017-07-19T22:02:33.087Z,0
2017-07-19T22:03:34.764Z,0
2017-07-19T22:04:36.435Z,0
2017-07-19T22:05:38.094Z,0
2017-07-19T22:06:39.826Z,0
2017-07-19T22:07:41.490Z,0
2017-07-19T22:08:43.161Z,0
2017-07-19T22:09:44.828Z,0
2017-07-19T22:10:46.540Z,0
2017-07-19T22:11:48.166Z,0
2017-07-19T22:12:49.831Z,0
2017-07-19T22:13:51.496Z,0
2017-07-19T22:14:53.165Z,0
2017-07-19T22:15:54.846Z,0
2017-07-19T22:16:56.512Z,0
2017-07-19T22:17:58.177Z,0
2017-07-19T22:18:59.834Z,0
2017-07-19T22:20:01.489Z,0
2017-07-19T22:21:03.166Z,0
2017-07-19T22:22:04.829Z,0
2017-07-19T22:23:06.500Z,0
2017-07-19T22:24:08.167Z,0
2017-07-19T22:25:09.851Z,0
2017-07-19T22:26:11.561Z,0
2017-07-19T22:27:13.227Z,0
2017-07-19T22:28:14.889Z,0
2017-07-19T22:29:16.556Z,0
2017-07-19T22:30:18.231Z,0
2017-07-19T22:31:19.897Z,0
2017-07-19T22:32:21.560Z,0
2017-07-19T22:33:23.220Z,0
2017-07-19T22:34:24.890Z,0
2017-07-19T22:35:26.561Z,0
2017-07-19T22:36:28.231Z,0
2017-07-19T22:37:29.912Z,0
2017-07-19T22:38:31.586Z,0
2017-07-19T22:39:33.260Z,0
2017-07-19T22:40:34.928Z,0
2017-07-19T22:41:36.591Z,0
2017-07-19T22:42:38.262Z,0
2017-07-19T22:43:39.923Z,0
2017-07-19T22:44:41.592Z,0
2017-07-19T22:45:43.282Z,0
2017-07-19T22:46:44.950Z,0
2017-07-19T22:47:46.609Z,0
2017-07-19T22:48:48.278Z,0
2017-07-19T22:49:49.954Z,0
2017-07-19T22:50:51.624Z,0
2017-07-19T22:51:53.346Z,0
2017-07-19T22:52:55.032Z,0
2017-07-19T22:53:56.765Z,0
2017-07-19T22:54:58.470Z,0
2017-07-19T22:56:00.129Z,0
2017-07-19T22:57:01.848Z,0
2017-07-19T22:58:03.618Z,0
2017-07-19T22:59:05.284Z,0
2017-07-19T23:00:06.953Z,0
2017-07-19T23:01:08.628Z,0
2017-07-19T23:02:10.296Z,0
2017-07-19T23:03:11.958Z,0
2017-07-19T23:04:13.621Z,0
2017-07-19T23:05:15.334Z,0
2017-07-19T23:06:17.028Z,0
2017-07-19T23:07:18.697Z,0
2017-07-19T23:08:20.372Z,0
2017-07-19T23:09:22.021Z,0
2017-07-19T23:10:23.707Z,0
2017-07-19T23:11:25.366Z,0
2017-07-19T23:12:27.037Z,0
2017-07-19T23:13:28.704Z,0
2017-07-19T23:14:30.410Z,0
2017-07-19T23:15:32.106Z,0
2017-07-19T23:16:33.771Z,0
2017-07-19T23:17:35.433Z,0
2017-07-19T23:18:37.121Z,0
2017-07-19T23:19:38.788Z,0
2017-07-19T23:20:40.461Z,0
2017-07-19T23:21:42.129Z,0
2017-07-19T23:22:43.799Z,0
2017-07-19T23:23:45.462Z,0
2017-07-19T23:24:47.236Z,0
2017-07-19T23:25:48.984Z,0
2017-07-19T23:26:50.700Z,0
2017-07-19T23:27:52.431Z,0
2017-07-19T23:28:54.192Z,0
2017-07-19T23:29:56.052Z,0
2017-07-19T23:30:57.878Z,0
2017-07-19T23:31:59.726Z,0
2017-07-19T23:33:01.562Z,0
2017-07-19T23:34:03.821Z,0
2017-07-19T23:35:05.644Z,0
2017-07-19T23:36:07.673Z,0
2017-07-19T23:37:09.441Z,0
2017-07-19T23:38:11.225Z,0
2017-07-19T23:39:13.096Z,0
2017-07-19T23:40:14.829Z,0
2017-07-19T23:41:16.591Z,0
2017-07-19T23:42:18.416Z,0
2017-07-19T23:43:20.182Z,0
2017-07-19T23:44:22.118Z,0
2017-07-19T23:45:24.058Z,0
2017-07-19T23:46:25.949Z,0
2017-07-19T23:47:27.814Z,0
2017-07-19T23:48:29.680Z,0
2017-07-19T23:49:31.531Z,0
2017-07-19T23:50:33.254Z,0
2017-07-19T23:51:35.154Z,0
2017-07-19T23:52:36.987Z,0
2017-07-19T23:53:38.776Z,0
2017-07-19T23:54:40.546Z,0
2017-07-19T23:55:42.486Z,0
2017-07-19T23:56:44.184Z,0
2017-07-19T23:57:46.043Z,0
2017-07-19T23:58:47.709Z,0
2017-07-19T23:59:49.430Z,0
